Time;durP1;ratioP1;P1;durP2;ratioP2;P2;SDS_P1;SDS_P2;PMS_P1;PMS_P2;Temp;Humidity;BMP_temperature;BMP_pressure;BME280_temperature;BME280_humidity;BME280_pressure;Samples;Min_cycle;Max_cycle;Signal;HPM_P1;HPM_P2
2022/06/29 00:01:15;;;;;;;12.75;5.28;;;16.30;99.90;;;;;;5025384;28;20129;-65
2022/06/29 00:03:40;;;;;;;15.95;5.03;;;16.30;99.90;;;;;;5008090;28;20063;-66
2022/06/29 00:06:06;;;;;;;11.13;4.50;;;16.30;99.90;;;;;;5002993;28;20046;-65
2022/06/29 00:08:32;;;;;;;8.27;4.70;;;16.30;99.90;;;;;;5005363;28;20141;-68
2022/06/29 00:10:57;;;;;;;14.70;5.25;;;16.30;99.90;;;;;;5025273;28;21173;-65
2022/06/29 00:13:23;;;;;;;8.35;5.03;;;16.30;99.90;;;;;;5001757;28;20074;-65
2022/06/29 00:15:49;;;;;;;9.25;4.72;;;16.30;99.90;;;;;;5022749;28;20041;-67
2022/06/29 00:18:14;;;;;;;8.50;5.00;;;16.20;99.90;;;;;;5008173;28;20133;-65
2022/06/29 00:20:40;;;;;;;10.07;4.75;;;16.20;99.90;;;;;;5003432;28;20173;-65
2022/06/29 00:23:06;;;;;;;9.45;4.90;;;16.20;99.90;;;;;;5007541;28;20033;-65
2022/06/29 00:25:32;;;;;;;9.23;4.80;;;16.20;99.90;;;;;;5004797;28;20164;-65
2022/06/29 00:27:57;;;;;;;10.10;4.85;;;16.20;99.90;;;;;;5007248;28;20038;-65
2022/06/29 00:30:23;;;;;;;8.18;4.50;;;16.10;99.90;;;;;;5005126;28;20042;-66
2022/06/29 00:32:48;;;;;;;8.15;4.32;;;16.10;99.90;;;;;;5010932;28;20066;-66
2022/06/29 00:35:14;;;;;;;9.75;4.45;;;16.10;99.90;;;;;;5008398;28;20037;-67
2022/06/29 00:37:40;;;;;;;8.57;4.80;;;16.10;99.90;;;;;;5005906;28;20050;-65
2022/06/29 00:40:07;;;;;;;8.65;4.47;;;16.10;99.90;;;;;;5007397;28;20049;-66
2022/06/29 00:42:33;;;;;;;9.55;4.78;;;16.10;99.90;;;;;;5006694;28;20396;-65
2022/06/29 00:44:59;;;;;;;12.52;5.35;;;16.10;99.90;;;;;;5006824;28;20038;-65
2022/06/29 00:47:24;;;;;;;9.27;4.88;;;16.00;99.90;;;;;;5005923;28;20499;-65
2022/06/29 00:49:50;;;;;;;9.50;5.28;;;16.00;99.90;;;;;;5004642;28;20042;-65
2022/06/29 00:52:19;;;;;;;8.82;4.70;;;16.00;99.90;;;;;;5009042;28;20041;-65
2022/06/29 00:54:51;;;;;;;7.75;5.03;;;16.00;99.90;;;;;;5005632;28;20045;-66
2022/06/29 00:57:20;;;;;;;8.25;5.20;;;15.90;99.90;;;;;;5005904;28;20038;-66
2022/06/29 00:59:48;;;;;;;8.95;5.30;;;15.90;99.90;;;;;;5006803;28;20120;-65
2022/06/29 01:02:16;;;;;;;7.85;4.72;;;15.90;99.90;;;;;;5004722;28;20038;-65
2022/06/29 01:04:43;;;;;;;12.85;5.32;;;15.90;99.90;;;;;;5006172;28;20153;-65
2022/06/29 01:07:11;;;;;;;9.30;4.80;;;15.90;99.90;;;;;;5006865;28;20060;-65
2022/06/29 01:09:38;;;;;;;10.05;5.88;;;15.80;99.90;;;;;;5005011;28;20046;-67
2022/06/29 01:12:04;;;;;;;8.50;5.03;;;15.80;99.90;;;;;;5010856;28;20396;-66
2022/06/29 01:14:30;;;;;;;10.82;6.07;;;15.80;99.90;;;;;;5011099;28;20045;-66
2022/06/29 01:16:56;;;;;;;8.68;5.53;;;15.80;99.90;;;;;;5003423;28;20048;-66
2022/06/29 01:19:22;;;;;;;7.15;5.20;;;15.80;99.90;;;;;;5010627;28;20435;-66
2022/06/29 01:21:51;;;;;;;8.88;5.47;;;15.80;99.90;;;;;;5008825;28;20124;-66
2022/06/29 01:24:18;;;;;;;10.15;5.60;;;15.80;99.90;;;;;;5006064;28;20140;-66
2022/06/29 01:26:44;;;;;;;8.95;5.32;;;15.80;99.90;;;;;;5011144;28;20046;-66
2022/06/29 01:29:10;;;;;;;13.05;6.20;;;15.80;99.90;;;;;;5007518;28;20530;-66
2022/06/29 01:31:35;;;;;;;8.95;5.60;;;15.80;99.90;;;;;;5010415;28;20443;-66
2022/06/29 01:34:01;;;;;;;12.52;5.55;;;15.80;99.90;;;;;;5005527;28;20060;-66
2022/06/29 01:36:27;;;;;;;8.55;5.88;;;15.80;99.90;;;;;;5012453;28;20042;-67
2022/06/29 01:38:53;;;;;;;7.95;5.43;;;15.80;99.90;;;;;;5005713;28;20045;-67
2022/06/29 01:41:18;;;;;;;10.73;6.45;;;15.80;99.90;;;;;;5007741;28;20045;-66
2022/06/29 01:43:44;;;;;;;11.77;5.40;;;15.80;99.90;;;;;;5009883;28;20038;-66
2022/06/29 01:46:10;;;;;;;8.85;6.00;;;15.70;99.90;;;;;;5005269;28;20077;-66
2022/06/29 01:48:36;;;;;;;10.57;6.15;;;15.80;99.90;;;;;;5008927;28;20489;-66
2022/06/29 01:51:02;;;;;;;9.95;5.85;;;15.70;99.90;;;;;;5011265;28;20051;-66
2022/06/29 01:53:27;;;;;;;14.32;6.38;;;15.70;99.90;;;;;;5005583;28;20046;-66
2022/06/29 01:55:53;;;;;;;8.02;5.90;;;15.70;99.90;;;;;;5011151;28;20455;-66
2022/06/29 01:58:19;;;;;;;11.48;6.38;;;15.70;99.90;;;;;;5008565;28;20069;-67
2022/06/29 02:00:45;;;;;;;10.15;6.28;;;15.70;99.90;;;;;;5007320;28;20489;-66
2022/06/29 02:03:11;;;;;;;7.63;6.05;;;15.70;99.90;;;;;;5007032;28;20125;-66
2022/06/29 02:05:36;;;;;;;8.60;5.93;;;15.70;99.90;;;;;;5023527;28;21150;-66
2022/06/29 02:08:03;;;;;;;11.98;6.30;;;15.70;99.90;;;;;;5020323;28;20038;-67
2022/06/29 02:10:30;;;;;;;9.20;6.05;;;15.70;99.90;;;;;;5009422;28;20088;-66
2022/06/29 02:12:55;;;;;;;9.13;6.32;;;15.70;99.90;;;;;;5011606;28;20092;-67
2022/06/29 02:15:23;;;;;;;20.40;8.13;;;15.70;99.90;;;;;;5008107;28;20484;-66
2022/06/29 02:17:50;;;;;;;8.07;6.72;;;15.70;99.90;;;;;;5006663;28;20049;-66
2022/06/29 02:20:15;;;;;;;13.65;6.93;;;15.70;99.90;;;;;;5007628;28;20408;-66
2022/06/29 02:22:41;;;;;;;11.65;6.40;;;15.80;99.90;;;;;;5006732;28;20033;-66
2022/06/29 02:25:08;;;;;;;10.85;6.68;;;15.80;99.90;;;;;;5004096;28;20108;-66
2022/06/29 02:27:37;;;;;;;8.35;6.68;;;15.80;99.90;;;;;;5010427;28;20034;-66
2022/06/29 02:30:03;;;;;;;11.63;7.18;;;15.80;99.90;;;;;;5006690;28;20400;-66
2022/06/29 02:35:13;;;;;;;8.23;6.75;;;15.80;99.90;;;;;;5014185;28;20116;-66
2022/06/29 02:37:39;;;;;;;9.63;6.85;;;15.80;99.90;;;;;;5012072;28;20041;-65
2022/06/29 02:40:05;;;;;;;12.07;6.88;;;15.80;99.90;;;;;;5007876;28;20046;-65
2022/06/29 02:42:30;;;;;;;8.20;6.10;;;15.80;99.90;;;;;;5006200;28;20042;-66
2022/06/29 02:44:56;;;;;;;11.27;7.15;;;15.80;99.90;;;;;;5011537;28;20041;-65
2022/06/29 02:47:22;;;;;;;12.07;6.75;;;15.80;99.90;;;;;;5011267;28;20404;-66
2022/06/29 02:49:47;;;;;;;10.15;6.70;;;15.80;99.90;;;;;;5011993;28;20158;-67
2022/06/29 02:52:13;;;;;;;9.88;7.00;;;15.80;99.90;;;;;;5027275;28;20519;-66
2022/06/29 02:54:38;;;;;;;12.15;6.93;;;15.80;99.90;;;;;;5009558;28;20044;-66
2022/06/29 02:57:04;;;;;;;11.30;6.90;;;15.80;99.90;;;;;;5009622;28;20042;-66
2022/06/29 02:59:30;;;;;;;12.38;6.85;;;15.70;99.90;;;;;;5009703;28;20050;-67
2022/06/29 03:01:55;;;;;;;9.15;6.53;;;15.80;99.90;;;;;;5012584;28;20044;-66
2022/06/29 03:04:21;;;;;;;10.98;6.97;;;15.70;99.90;;;;;;5010569;28;20049;-66
2022/06/29 03:06:47;;;;;;;9.13;7.07;;;15.70;99.90;;;;;;5011353;28;20103;-66
2022/06/29 03:09:13;;;;;;;13.00;7.45;;;15.70;99.90;;;;;;5009611;28;20103;-66
2022/06/29 03:11:38;;;;;;;11.80;7.10;;;15.70;99.90;;;;;;5012617;28;20050;-67
2022/06/29 03:14:04;;;;;;;12.32;6.95;;;15.70;99.90;;;;;;5005633;28;20438;-67
2022/06/29 03:16:30;;;;;;;9.00;7.10;;;15.70;99.90;;;;;;5006925;28;20185;-66
2022/06/29 03:18:55;;;;;;;8.95;7.30;;;15.70;99.90;;;;;;5006655;28;20042;-66
2022/06/29 03:21:21;;;;;;;10.93;7.30;;;15.70;99.90;;;;;;5008399;28;20084;-66
2022/06/29 03:23:47;;;;;;;8.35;7.05;;;15.70;99.90;;;;;;5006646;28;20065;-67
2022/06/29 03:26:12;;;;;;;9.88;7.07;;;15.70;99.90;;;;;;5002038;28;20124;-66
2022/06/29 03:28:38;;;;;;;12.02;7.47;;;15.60;99.90;;;;;;5006158;28;20077;-66
2022/06/29 03:31:04;;;;;;;17.98;7.43;;;15.60;99.90;;;;;;5008902;28;20041;-66
2022/06/29 03:33:30;;;;;;;8.25;7.28;;;15.70;99.90;;;;;;5008274;28;20103;-66
2022/06/29 03:35:56;;;;;;;12.95;7.20;;;15.70;99.90;;;;;;5009961;28;20049;-66
2022/06/29 03:38:22;;;;;;;8.95;7.50;;;15.60;99.90;;;;;;5008362;28;20502;-66
2022/06/29 03:40:48;;;;;;;11.43;7.15;;;15.60;99.90;;;;;;5007724;28;20033;-66
2022/06/29 03:43:13;;;;;;;10.52;7.63;;;15.60;99.90;;;;;;5005385;28;20042;-67
2022/06/29 03:45:39;;;;;;;14.70;8.05;;;15.60;99.90;;;;;;5007139;28;20076;-66
2022/06/29 03:48:05;;;;;;;10.73;7.63;;;15.60;99.90;;;;;;5008937;28;20045;-68
2022/06/29 03:50:31;;;;;;;9.90;7.18;;;15.60;99.90;;;;;;5007747;28;20042;-66
2022/06/29 03:52:57;;;;;;;12.15;7.80;;;15.60;99.90;;;;;;5008469;28;20042;-65
2022/06/29 03:55:22;;;;;;;8.75;7.13;;;15.60;99.90;;;;;;5006861;28;20133;-67
2022/06/29 03:57:48;;;;;;;10.13;7.70;;;15.60;99.90;;;;;;5009237;28;20120;-66
2022/06/29 04:00:14;;;;;;;9.07;6.78;;;15.60;99.90;;;;;;5009817;28;20054;-66
2022/06/29 04:02:40;;;;;;;8.40;7.55;;;15.60;99.90;;;;;;5022753;28;20712;-67
2022/06/29 04:05:06;;;;;;;10.70;7.25;;;15.60;99.90;;;;;;5006280;28;20484;-66
2022/06/29 04:07:32;;;;;;;9.73;8.00;;;15.60;99.90;;;;;;5003640;28;20048;-66
2022/06/29 04:09:59;;;;;;;12.83;7.27;;;15.60;99.90;;;;;;5000263;28;20463;-66
2022/06/29 04:12:29;;;;;;;11.73;7.68;;;15.60;99.90;;;;;;5008005;28;20104;-66
2022/06/29 04:14:55;;;;;;;11.82;7.85;;;15.60;99.90;;;;;;5006996;28;20120;-65
2022/06/29 04:17:21;;;;;;;11.48;7.95;;;15.60;99.90;;;;;;5003991;28;20053;-66
2022/06/29 04:19:47;;;;;;;11.55;8.35;;;15.60;99.90;;;;;;5007045;28;20062;-67
2022/06/29 04:22:12;;;;;;;12.55;8.38;;;15.50;99.90;;;;;;5008953;28;20037;-66
2022/06/29 04:24:38;;;;;;;15.32;8.05;;;15.50;99.90;;;;;;5003663;28;20037;-66
2022/06/29 04:27:03;;;;;;;9.35;7.72;;;15.50;99.90;;;;;;5008548;28;20133;-67
2022/06/29 04:29:29;;;;;;;9.52;7.68;;;15.50;99.90;;;;;;5008117;28;20041;-66
2022/06/29 04:31:55;;;;;;;12.63;8.40;;;15.50;99.90;;;;;;5005866;28;20034;-65
2022/06/29 04:34:20;;;;;;;10.55;8.57;;;15.50;99.90;;;;;;5006517;28;20045;-65
2022/06/29 04:36:46;;;;;;;11.32;8.40;;;15.50;99.90;;;;;;5005785;28;20076;-67
2022/06/29 04:39:12;;;;;;;14.32;8.70;;;15.60;99.90;;;;;;5008924;28;20121;-65
2022/06/29 04:41:37;;;;;;;11.05;8.68;;;15.60;99.90;;;;;;5024697;28;20050;-66
2022/06/29 04:44:03;;;;;;;10.40;7.78;;;15.60;99.90;;;;;;5007951;28;20161;-66
2022/06/29 04:46:29;;;;;;;10.40;7.93;;;15.60;99.90;;;;;;5027163;28;20046;-66
2022/06/29 04:49:00;;;;;;;11.35;8.57;;;15.60;99.90;;;;;;5014348;28;20380;-66
2022/06/29 04:51:28;;;;;;;17.27;8.57;;;15.70;99.90;;;;;;5013889;28;20531;-66
2022/06/29 04:53:56;;;;;;;9.98;8.25;;;15.70;99.90;;;;;;5009297;28;20099;-66
2022/06/29 04:56:23;;;;;;;9.87;7.37;;;15.80;99.90;;;;;;5013892;28;20547;-65
2022/06/29 04:58:53;;;;;;;10.32;8.23;;;15.80;99.90;;;;;;5012767;28;20698;-66
2022/06/29 05:01:19;;;;;;;15.45;8.40;;;15.80;99.90;;;;;;5013449;28;20054;-67
2022/06/29 05:03:44;;;;;;;12.05;8.07;;;15.90;99.90;;;;;;5005745;28;20049;-66
2022/06/29 05:06:10;;;;;;;12.35;9.07;;;15.90;99.90;;;;;;5009921;28;20101;-67
2022/06/29 05:08:36;;;;;;;11.40;7.93;;;16.00;99.90;;;;;;5010369;28;20407;-65
2022/06/29 05:11:01;;;;;;;9.75;8.15;;;16.00;99.90;;;;;;5015587;28;20036;-66
2022/06/29 05:13:27;;;;;;;10.35;7.75;;;16.00;99.90;;;;;;5008799;28;20174;-66
2022/06/29 05:15:53;;;;;;;9.65;8.32;;;16.10;99.90;;;;;;5011500;28;20504;-67
2022/06/29 05:18:19;;;;;;;11.70;7.97;;;16.20;99.90;;;;;;5010656;28;20524;-66
2022/06/29 05:20:45;;;;;;;10.77;8.30;;;16.20;99.90;;;;;;5006809;28;20246;-66
2022/06/29 05:23:11;;;;;;;12.85;7.78;;;16.20;99.90;;;;;;5008095;28;20041;-66
2022/06/29 05:25:37;;;;;;;11.80;8.07;;;16.30;99.90;;;;;;5011661;28;20091;-65
2022/06/29 05:28:02;;;;;;;12.88;7.90;;;16.40;99.90;;;;;;5009121;28;20526;-66
2022/06/29 05:30:28;;;;;;;10.90;8.10;;;16.40;99.90;;;;;;5009514;28;20038;-67
2022/06/29 05:32:54;;;;;;;15.93;8.50;;;16.40;99.90;;;;;;5028714;28;20396;-67
2022/06/29 05:35:20;;;;;;;9.80;7.78;;;16.50;99.90;;;;;;5014418;28;20053;-65
2022/06/29 05:37:45;;;;;;;16.55;7.43;;;16.50;99.90;;;;;;5028414;28;20050;-66
2022/06/29 05:40:11;;;;;;;13.13;8.48;;;16.60;99.90;;;;;;5005013;28;20510;-66
2022/06/29 05:42:37;;;;;;;9.07;7.30;;;16.60;99.90;;;;;;5016018;28;20034;-66
2022/06/29 05:45:03;;;;;;;13.00;7.82;;;16.70;99.90;;;;;;5013514;28;20060;-67
2022/06/29 05:47:29;;;;;;;10.80;7.20;;;16.70;99.90;;;;;;5014404;28;20127;-66
2022/06/29 05:50:00;;;;;;;8.75;6.97;;;16.70;99.90;;;;;;5007201;28;20077;-66
2022/06/29 05:52:26;;;;;;;7.85;6.78;;;16.80;99.90;;;;;;5012764;28;20041;-66
2022/06/29 05:54:51;;;;;;;12.85;7.35;;;16.90;99.90;;;;;;5010109;28;20038;-65
2022/06/29 05:57:19;;;;;;;12.90;6.43;;;16.90;99.90;;;;;;5026351;28;20034;-67
2022/06/29 05:59:48;;;;;;;9.88;7.13;;;17.00;99.90;;;;;;5012348;28;20046;-66
2022/06/29 06:02:14;;;;;;;11.90;6.68;;;17.00;99.90;;;;;;5010424;28;20061;-65
2022/06/29 06:04:40;;;;;;;10.20;7.05;;;17.00;99.90;;;;;;5009463;28;20070;-66
2022/06/29 06:07:06;;;;;;;9.45;7.00;;;17.00;99.90;;;;;;5012995;28;20050;-66
2022/06/29 06:09:32;;;;;;;7.57;6.70;;;17.10;99.90;;;;;;5019488;28;20041;-66
2022/06/29 06:11:58;;;;;;;8.88;7.30;;;17.20;99.90;;;;;;5014667;28;20100;-66
2022/06/29 06:14:24;;;;;;;12.63;7.00;;;17.20;99.90;;;;;;5022105;28;20046;-66
2022/06/29 06:16:50;;;;;;;9.93;6.50;;;17.30;99.90;;;;;;5011870;28;20357;-66
2022/06/29 06:19:17;;;;;;;8.00;5.88;;;17.50;99.90;;;;;;5015522;28;20473;-66
2022/06/29 06:21:42;;;;;;;9.63;5.18;;;17.80;99.90;;;;;;5020362;28;20418;-67
2022/06/29 06:24:08;;;;;;;10.32;5.68;;;17.90;99.90;;;;;;5026859;28;20088;-65
2022/06/29 06:26:34;;;;;;;9.18;5.28;;;18.00;99.90;;;;;;5011818;28;20080;-66
2022/06/29 06:29:02;;;;;;;8.10;5.45;;;18.10;99.90;;;;;;5022051;28;20100;-66
2022/06/29 06:31:28;;;;;;;10.43;5.50;;;18.20;99.90;;;;;;5011837;28;20492;-66
2022/06/29 06:33:54;;;;;;;11.00;5.30;;;18.40;99.90;;;;;;5014266;28;20045;-67
2022/06/29 06:36:20;;;;;;;5.65;4.53;;;18.50;99.90;;;;;;5031522;28;20622;-67
2022/06/29 06:38:45;;;;;;;6.55;4.35;;;18.60;99.90;;;;;;5011906;28;20392;-66
2022/06/29 06:41:23;;;;;;;5.80;3.92;;;18.80;99.90;;;;;;5012113;28;20129;-66
2022/06/29 06:43:50;;;;;;;5.85;4.05;;;18.90;99.90;;;;;;5012017;28;20511;-65
2022/06/29 06:46:17;;;;;;;7.57;4.28;;;19.10;99.90;;;;;;5005432;28;20038;-65
2022/06/29 06:48:45;;;;;;;6.07;3.28;;;19.20;99.90;;;;;;5008730;28;20042;-66
2022/06/29 06:51:12;;;;;;;8.65;3.72;;;19.40;99.90;;;;;;5015300;28;20038;-65
2022/06/29 06:53:38;;;;;;;7.20;3.13;;;19.50;99.90;;;;;;5010063;28;20056;-66
2022/06/29 06:56:04;;;;;;;10.70;3.58;;;19.70;99.90;;;;;;5007729;28;20160;-65
2022/06/29 06:58:30;;;;;;;6.85;3.20;;;19.80;99.90;;;;;;5007476;28;20041;-66
2022/06/29 07:00:56;;;;;;;8.00;3.38;;;19.90;99.90;;;;;;5013050;28;20042;-66
2022/06/29 07:03:21;;;;;;;7.43;3.20;;;20.10;99.90;;;;;;5002940;28;20038;-66
2022/06/29 07:05:47;;;;;;;8.48;3.30;;;20.20;99.90;;;;;;5013090;28;20088;-66
2022/06/29 07:08:13;;;;;;;8.52;3.40;;;20.40;99.90;;;;;;5022030;28;20034;-66
2022/06/29 07:10:38;;;;;;;9.07;3.55;;;20.50;99.90;;;;;;5005623;28;20510;-65
2022/06/29 07:13:04;;;;;;;5.85;3.03;;;20.60;99.90;;;;;;5008735;28;20400;-67
2022/06/29 07:15:30;;;;;;;7.63;4.07;;;20.80;99.90;;;;;;5007775;28;20030;-66
2022/06/29 07:17:56;;;;;;;8.15;3.05;;;20.80;99.90;;;;;;5012101;28;20045;-66
2022/06/29 07:20:22;;;;;;;6.57;2.58;;;21.00;99.90;;;;;;5008260;28;20054;-66
2022/06/29 07:22:48;;;;;;;7.50;2.80;;;21.10;99.90;;;;;;5012166;28;20045;-65
2022/06/29 07:25:13;;;;;;;7.30;3.00;;;21.20;99.90;;;;;;5013971;28;20038;-67
2022/06/29 07:27:39;;;;;;;5.10;2.67;;;21.40;99.90;;;;;;5023174;28;20045;-65
2022/06/29 07:30:05;;;;;;;15.55;2.90;;;21.50;99.90;;;;;;5008419;28;20361;-65
2022/06/29 07:32:31;;;;;;;9.13;2.95;;;21.60;99.90;;;;;;5011839;28;20518;-65
2022/06/29 07:34:57;;;;;;;5.47;2.60;;;21.80;99.90;;;;;;5019857;28;20085;-66
2022/06/29 07:37:22;;;;;;;8.52;2.85;;;21.80;99.90;;;;;;5013584;28;20124;-67
2022/06/29 07:39:48;;;;;;;6.22;2.95;;;21.90;99.90;;;;;;5007711;28;20495;-68
2022/06/29 07:42:14;;;;;;;7.68;2.70;;;22.10;99.90;;;;;;5009304;28;20038;-67
2022/06/29 07:44:39;;;;;;;9.77;2.92;;;22.20;99.90;;;;;;5009134;28;20046;-66
2022/06/29 07:47:05;;;;;;;5.45;2.50;;;22.30;99.90;;;;;;5009113;28;20095;-67
2022/06/29 07:49:31;;;;;;;5.93;2.45;;;22.40;99.90;;;;;;5011294;28;20044;-67
2022/06/29 07:51:56;;;;;;;9.88;2.55;;;22.50;99.90;;;;;;5009795;28;20037;-66
2022/06/29 07:54:22;;;;;;;4.47;2.15;;;22.70;99.60;;;;;;5010109;28;20050;-69
2022/06/29 07:56:48;;;;;;;7.25;2.35;;;22.70;99.20;;;;;;5008971;28;20037;-67
2022/06/29 07:59:14;;;;;;;7.43;2.85;;;22.80;98.80;;;;;;5009575;28;20076;-66
2022/06/29 08:01:40;;;;;;;5.72;2.40;;;22.90;98.40;;;;;;5008124;28;20158;-68
2022/06/29 08:04:05;;;;;;;11.80;3.00;;;23.00;97.60;;;;;;5008716;28;20619;-67
2022/06/29 08:06:31;;;;;;;6.35;2.30;;;23.00;97.50;;;;;;5022928;28;20134;-67
2022/06/29 08:08:58;;;;;;;7.15;3.40;;;23.10;97.00;;;;;;5004030;28;20068;-67
2022/06/29 08:11:24;;;;;;;8.43;2.17;;;23.10;97.10;;;;;;5008375;28;20828;-67
2022/06/29 08:13:50;;;;;;;6.90;2.38;;;23.20;96.40;;;;;;5023198;28;20077;-68
2022/06/29 08:16:15;;;;;;;7.25;2.40;;;23.30;96.30;;;;;;5021274;28;20481;-67
2022/06/29 08:18:41;;;;;;;5.43;2.33;;;23.30;96.20;;;;;;5012816;28;20033;-66
2022/06/29 08:21:07;;;;;;;6.53;2.08;;;23.50;96.00;;;;;;5012801;28;20104;-67
2022/06/29 08:23:33;;;;;;;3.53;1.92;;;23.60;96.20;;;;;;5014455;28;20061;-66
2022/06/29 08:25:59;;;;;;;4.30;2.20;;;23.50;95.70;;;;;;5014090;28;20042;-68
2022/06/29 08:28:25;;;;;;;4.55;2.00;;;23.40;95.70;;;;;;5012746;28;20076;-67
2022/06/29 08:30:51;;;;;;;9.18;2.58;;;23.40;95.90;;;;;;5012885;28;20033;-67
2022/06/29 08:33:17;;;;;;;7.22;2.28;;;23.50;95.80;;;;;;5013721;28;20041;-66
2022/06/29 08:35:43;;;;;;;10.85;3.00;;;23.70;96.00;;;;;;5013049;28;20121;-66
2022/06/29 08:38:09;;;;;;;4.60;2.10;;;23.90;95.90;;;;;;5025039;28;20133;-67
2022/06/29 08:40:46;;;;;;;6.47;2.30;;;24.00;95.40;;;;;;5014499;28;20128;-68
2022/06/29 08:43:15;;;;;;;7.03;2.17;;;24.00;94.20;;;;;;5014702;28;20082;-67
2022/06/29 08:45:43;;;;;;;4.32;2.00;;;24.00;94.80;;;;;;5014645;28;20495;-68
2022/06/29 08:48:10;;;;;;;8.18;3.03;;;24.20;95.50;;;;;;5013074;28;20084;-66
2022/06/29 08:50:40;;;;;;;3.63;2.20;;;24.40;95.60;;;;;;5013536;28;20495;-66
2022/06/29 08:53:07;;;;;;;7.43;2.35;;;24.50;95.40;;;;;;5014716;28;20045;-68
2022/06/29 08:55:40;;;;;;;9.55;2.22;;;24.60;95.00;;;;;;5007097;28;20136;-67
2022/06/29 08:58:20;;;;;;;4.35;2.33;;;24.60;94.60;;;;;;5016375;28;20049;-66
2022/06/29 09:00:46;;;;;;;7.20;2.00;;;24.60;94.80;;;;;;5009785;28;20042;-68
2022/06/29 09:03:15;;;;;;;5.50;2.22;;;24.70;94.90;;;;;;5010508;28;20104;-66
2022/06/29 09:05:54;;;;;;;10.18;2.25;;;24.80;94.80;;;;;;5009985;28;20054;-67
2022/06/29 09:08:21;;;;;;;6.68;2.47;;;24.90;94.40;;;;;;5010313;28;20058;-68
2022/06/29 09:10:47;;;;;;;6.10;2.33;;;24.90;94.40;;;;;;5008150;28;20042;-68
2022/06/29 09:13:22;;;;;;;7.63;2.40;;;24.90;93.80;;;;;;5006195;28;20042;-67
2022/06/29 09:15:58;;;;;;;5.95;2.50;;;24.90;93.70;;;;;;5009486;28;20060;-67
2022/06/29 09:18:27;;;;;;;6.30;2.20;;;24.80;93.40;;;;;;5009404;28;20045;-67
2022/06/29 09:21:01;;;;;;;5.85;1.90;;;24.90;93.30;;;;;;5011408;28;20049;-67
2022/06/29 09:23:27;;;;;;;4.38;2.10;;;25.10;93.70;;;;;;5008642;28;20053;-67
2022/06/29 09:25:53;;;;;;;8.43;2.35;;;25.30;93.40;;;;;;5007637;28;20038;-67
2022/06/29 09:28:24;;;;;;;6.03;1.90;;;25.50;93.40;;;;;;5010920;28;20155;-67
2022/06/29 09:30:52;;;;;;;3.20;2.33;;;25.60;92.80;;;;;;5007662;28;20052;-67
2022/06/29 09:33:23;;;;;;;5.53;2.58;;;25.80;92.50;;;;;;5010100;28;20385;-68
2022/06/29 09:36:09;;;;;;;6.90;2.10;;;26.10;92.50;;;;;;5002961;28;20535;-66
2022/06/29 09:38:36;;;;;;;7.05;2.15;;;26.20;91.80;;;;;;5010036;28;20571;-67
2022/06/29 09:41:05;;;;;;;4.90;2.22;;;26.20;91.70;;;;;;5018752;28;20045;-65
2022/06/29 09:43:32;;;;;;;7.93;2.20;;;26.20;91.60;;;;;;5024852;28;20057;-67
2022/06/29 09:46:02;;;;;;;3.53;2.10;;;26.10;91.80;;;;;;5010386;28;20050;-68
2022/06/29 09:48:30;;;;;;;4.78;1.85;;;26.10;91.80;;;;;;5010304;28;20418;-66
2022/06/29 09:50:56;;;;;;;2.88;1.60;;;26.20;91.50;;;;;;5007354;28;20049;-67
2022/06/29 09:53:37;;;;;;;5.40;2.30;;;26.30;91.80;;;;;;5006685;28;20566;-67
2022/06/29 09:56:04;;;;;;;4.82;2.05;;;26.50;90.60;;;;;;5008235;28;20117;-67
2022/06/29 09:58:44;;;;;;;7.15;2.35;;;26.60;90.80;;;;;;4992221;28;20477;-67
2022/06/29 10:03:56;;;;;;;9.60;2.47;;;26.50;89.50;;;;;;5010439;28;20141;-67
2022/06/29 10:06:23;;;;;;;6.75;2.53;;;26.60;88.30;;;;;;5004094;28;20145;-67
2022/06/29 10:08:50;;;;;;;5.35;2.95;;;26.70;90.00;;;;;;5000106;28;20042;-68
2022/06/29 10:14:31;;;;;;;5.00;2.35;;;27.00;86.20;;;;;;5005337;28;20054;-67
2022/06/29 10:17:24;;;;;;;3.53;1.80;;;27.30;87.40;;;;;;5004135;28;20145;-68
2022/06/29 10:20:02;;;;;;;6.13;2.40;;;27.40;83.20;;;;;;5007985;28;20046;-67
2022/06/29 10:22:29;;;;;;;;;;;27.40;85.00;;;;;;5005524;28;20547;-66
2022/06/29 10:25:02;;;;;;;3.65;2.00;;;27.30;83.80;;;;;;5007894;28;19947;-67
2022/06/29 10:27:28;;;;;;;4.25;1.92;;;27.40;84.00;;;;;;5005093;28;20065;-67
2022/06/29 10:30:18;;;;;;;4.93;2.00;;;27.40;85.20;;;;;;5009246;28;20045;-67
2022/06/29 10:32:43;;;;;;;4.28;2.15;;;27.60;83.70;;;;;;5006188;28;20133;-67
2022/06/29 10:35:09;;;;;;;5.38;2.20;;;27.60;82.60;;;;;;5010037;28;20124;-67
2022/06/29 10:37:48;;;;;;;5.25;2.10;;;27.40;82.40;;;;;;5009250;28;20088;-67
2022/06/29 10:40:19;;;;;;;4.13;1.73;;;27.30;80.10;;;;;;5008989;28;20069;-66
2022/06/29 10:45:41;;;;;;;3.63;1.90;;;27.50;82.70;;;;;;5008749;28;20089;-67
2022/06/29 10:48:07;;;;;;;4.88;2.60;;;27.50;81.40;;;;;;5010345;28;20045;-67
2022/06/29 10:50:38;;;;;;;5.38;2.38;;;27.60;79.80;;;;;;5009064;28;20083;-67
2022/06/29 10:53:08;;;;;;;5.75;2.53;;;27.50;80.30;;;;;;5008403;28;20693;-67
2022/06/29 10:55:42;;;;;;;3.47;1.75;;;27.40;80.80;;;;;;5009666;28;20057;-67
2022/06/29 10:58:08;;;;;;;4.75;1.90;;;27.30;79.90;;;;;;5008170;28;20046;-67
2022/06/29 11:00:40;;;;;;;10.80;2.30;;;27.00;80.00;;;;;;5004623;28;20180;-67
2022/06/29 11:03:12;;;;;;;4.43;2.00;;;27.10;79.70;;;;;;5006366;28;20048;-68
2022/06/29 11:12:01;;;;;;;5.20;2.10;;;27.20;80.30;;;;;;5030024;28;20092;-66
2022/06/29 11:13:59;;;;;;;3.80;1.60;;;27.90;75.30;;;;;;5010485;28;20065;-67
2022/06/29 11:16:36;;;;;;;3.42;2.03;;;28.00;73.80;;;;;;5007091;28;20508;-66
2022/06/29 11:19:04;;;;;;;10.85;2.25;;;28.00;72.80;;;;;;5007736;28;20073;-66
2022/06/29 11:21:30;;;;;;;3.85;1.85;;;27.90;73.20;;;;;;5006508;28;20045;-66
2022/06/29 11:24:04;;;;;;;13.43;2.00;;;27.80;73.10;;;;;;5007027;28;20052;-67
2022/06/29 11:26:31;;;;;;;3.38;2.00;;;28.00;74.00;;;;;;5007644;28;20456;-67
2022/06/29 11:28:57;;;;;;;4.38;2.15;;;28.40;75.00;;;;;;5009596;28;20042;-66
2022/06/29 11:31:23;;;;;;;5.18;1.60;;;28.70;73.60;;;;;;5009306;28;20057;-66
2022/06/29 11:33:50;;;;;;;3.40;1.70;;;29.10;72.40;;;;;;5008316;28;20133;-67
2022/06/29 11:36:28;;;;;;;3.72;1.77;;;29.20;69.80;;;;;;5024406;28;20096;-65
2022/06/29 11:38:56;;;;;;;3.03;1.52;;;29.50;70.50;;;;;;5008134;28;20072;-66
2022/06/29 11:41:25;;;;;;;8.13;1.88;;;29.80;69.40;;;;;;5023277;28;20053;-65
2022/06/29 11:44:04;;;;;;;3.20;1.77;;;30.10;69.30;;;;;;5008885;28;20042;-65
2022/06/29 11:46:37;;;;;;;3.47;2.08;;;30.20;65.40;;;;;;5009265;28;20085;-64
2022/06/29 11:51:56;;;;;;;6.38;1.88;;;30.10;64.70;;;;;;4991795;28;20058;-66
2022/06/29 11:54:44;;;;;;;3.13;1.65;;;30.00;64.20;;;;;;5005226;28;20050;-66
2022/06/29 11:57:14;;;;;;;4.28;1.60;;;29.90;65.30;;;;;;5008147;28;20519;-66
2022/06/29 11:59:40;;;;;;;5.70;1.77;;;29.80;63.30;;;;;;5007077;28;20575;-66
2022/06/29 12:02:07;;;;;;;3.33;1.77;;;29.60;62.20;;;;;;5008769;28;20045;-66
2022/06/29 12:04:34;;;;;;;3.35;1.60;;;29.80;62.50;;;;;;5008681;28;20049;-66
2022/06/29 12:07:09;;;;;;;2.90;1.77;;;29.90;62.10;;;;;;5012904;28;20377;-65
2022/06/29 12:09:37;;;;;;;3.42;1.90;;;29.90;61.40;;;;;;5006676;28;20046;-65
2022/06/29 12:12:04;;;;;;;5.20;1.88;;;30.00;62.00;;;;;;4990608;28;20042;-66
2022/06/29 12:14:30;;;;;;;;;;;29.80;61.70;;;;;;5007445;28;20136;-66
2022/06/29 12:16:55;;;;;;;3.33;1.85;;;29.60;60.70;;;;;;5005926;28;20016;-67
2022/06/29 12:19:21;;;;;;;6.70;2.15;;;29.50;62.30;;;;;;5023301;28;20057;-68
2022/06/29 12:21:48;;;;;;;6.90;1.92;;;29.60;62.60;;;;;;5023973;28;20441;-67
2022/06/29 12:24:15;;;;;;;3.28;1.80;;;29.70;63.00;;;;;;5006637;28;20054;-66
2022/06/29 12:26:41;;;;;;;;;;;29.90;62.40;;;;;;4988311;28;20046;-66
2022/06/29 12:29:07;;;;;;;4.45;2.08;;;29.90;60.60;;;;;;5003823;28;19949;-67
2022/06/29 12:31:34;;;;;;;6.63;2.38;;;30.10;63.10;;;;;;5004379;28;20051;-67
2022/06/29 12:34:00;;;;;;;3.20;2.03;;;30.10;61.00;;;;;;4994967;28;20108;-67
2022/06/29 12:36:26;;;;;;;2.65;2.00;;;29.90;61.10;;;;;;5008087;28;20054;-67
2022/06/29 12:38:51;;;;;;;5.30;2.15;;;29.70;61.40;;;;;;5006212;28;20064;-66
2022/06/29 12:41:17;;;;;;;4.07;2.50;;;29.70;61.70;;;;;;4990211;28;20129;-67
2022/06/29 12:43:42;;;;;;;3.97;2.17;;;29.70;62.00;;;;;;5008441;28;20054;-68
2022/06/29 12:46:08;;;;;;;4.93;2.22;;;29.90;62.80;;;;;;5008294;28;20068;-67
2022/06/29 12:48:34;;;;;;;5.68;2.60;;;30.00;63.30;;;;;;4993868;28;20042;-67
2022/06/29 12:50:59;;;;;;;8.57;2.30;;;30.10;63.00;;;;;;4988979;28;20042;-66
2022/06/29 12:53:26;;;;;;;5.93;2.80;;;30.30;63.70;;;;;;5004314;28;20587;-66
2022/06/29 12:55:51;;;;;;;8.18;2.65;;;30.00;60.80;;;;;;5014603;28;20491;-66
2022/06/29 12:58:17;;;;;;;4.43;2.13;;;30.10;62.20;;;;;;5000020;28;20166;-67
2022/06/29 13:00:43;;;;;;;8.90;3.00;;;30.20;64.00;;;;;;4988710;28;20042;-68
2022/06/29 13:03:08;;;;;;;7.03;2.50;;;30.40;63.70;;;;;;4994015;28;20133;-66
2022/06/29 13:05:35;;;;;;;4.68;2.42;;;30.60;63.80;;;;;;5010455;28;20518;-67